Plant City, FL (33563)

6:46 AM EST on February 28, 2017 (GMT -0500)
Ant Farm | | Change Station
Active Advisory: Special Statement

Elev 100 ft 28.04 °N, 82.17 °W | Updated 1 minute ago

Scattered Clouds
Scattered Clouds
66.6 °F
Feels Like 66.6 °F
N
0.0
Wind Variable Wind from South
Gusts 3.0 mph

Today
High -- | Low -- °F
--% Chance of Precip.
Yesterday
High -- | Low -- °F
Precip. -- in
Pressure 30.27 in
Visibility 4.0 miles
Clouds Scattered Clouds 600 ft
Dew Point 66 °F
Humidity 98%
Rainfall 0.00 in
Snow Depth Not available.
6:53 AM 6:28 PM
Waxing Crescent, 4% visible
METAR KPCM 281135Z AUTO 14004KT 4SM BR SCT006 20/20 A3027 RMK AO2
Pressure 30.27 in
Visibility 4.0 miles
Clouds Scattered Clouds 600 ft
Dew Point 66 °F
Humidity 98%
Rainfall 0.00 in
Snow Depth Not available.
6:53 AM 6:28 PM
Waxing Crescent, 4% visible
METAR KPCM 281135Z AUTO 14004KT 4SM BR SCT006 20/20 A3027 RMK AO2

Get Your Daily Forecast Email!

Thanks for signing up!

Be on the lookout for a verification email in your inbox.

You'll start receiving the daily forecast at 8 AM.

×

10-Day Weather Forecast

Almanac

Astronomy

Feb. 28, 2017 Rise Set
Actual Time
Civil Twilight
Nautical Twilight
Astronomical Twilight
Moon
Length of Visible Light
Length of Day
Tomorrow will be .
, % of the Moon is Illuminated

Today's Extremes

State Highs State Lows

Community

WunderPhotos

Upload Photos

1,962,540 photos uploaded!

WunderBlog® & News

Nearby

Air Quality

  Air Quality AQ Index Pollutant
Not available.

Snow Depth

Station Depth Elevation

Earthquake Activity

City Distance Mag. Time & Date
Minimum magnitude displayed is 2.5.

Coastal Water Temperatures

Place Temperature

Stations

Nearby Weather Stations

Station Location Temp. Windchill Dew Point Humidity Wind Precip. Elev Updated Type
                   

Watches & Warnings

Special Statement
Issued: 6:37 AM EST Feb. 28, 2017 – National Weather Service

... Locally dense fog through sunrise...

Patchy to areas of fog will continue across the region through
sunrise. Some of the fog will be locally dense fog at times which
will reduce visibilities to one quarter mile or less in some
locations. Motorists are urged to slow down, leave plenty of space
between the car in front of you, and to use their low beam
headlights if encountering fog this morning. The fog is expected
to burn off shortly after sunrise with improving conditions
expected.


McMichael